Time;durP1;ratioP1;P1;durP2;ratioP2;P2;SDS_P1;SDS_P2;PMS_P1;PMS_P2;Temp;Humidity;BMP_temperature;BMP_pressure;BME280_temperature;BME280_humidity;BME280_pressure;Samples;Min_cycle;Max_cycle;Signal;HPM_P1;HPM_P2
2024/03/02 00:03:24;;;;;;;84.50;52.60;;;;;;;7.71;91.71;98158.34;226743;1254;22523;-78
2024/03/02 00:08:27;;;;;;;86.30;53.20;;;;;;;7.67;91.46;98156.41;226674;1270;22533;-77
2024/03/02 00:13:33;;;;;;;83.20;51.60;;;;;;;7.63;91.27;98152.77;226808;1273;22545;-78
2024/03/02 00:18:36;;;;;;;85.30;53.10;;;;;;;7.57;90.94;98155.17;226853;1272;22561;-78
2024/03/02 00:23:39;;;;;;;77.70;47.50;;;;;;;7.51;91.65;98143.80;226821;1272;22530;-78
2024/03/02 00:28:46;;;;;;;86.50;53.30;;;;;;;7.43;91.25;98137.95;226757;1273;24259;-77
2024/03/02 00:33:49;;;;;;;79.00;51.70;;;;;;;7.37;91.42;98145.85;226842;1273;22569;-77
2024/03/02 00:38:53;;;;;;;86.00;52.40;;;;;;;7.32;91.80;98146.17;226657;1272;22546;-77
2024/03/02 00:44:08;;;;;;;81.80;53.30;;;;;;;7.26;91.64;98145.42;226754;1273;22536;-78
2024/03/02 00:49:25;;;;;;;78.20;50.30;;;;;;;7.22;91.67;98143.64;226771;1271;22547;-77
2024/03/02 00:54:28;;;;;;;84.50;51.80;;;;;;;7.20;91.89;98137.41;226541;1272;193173;-77
2024/03/02 00:59:31;;;;;;;82.80;52.70;;;;;;;7.17;91.99;98139.19;226699;1273;22530;-76
2024/03/02 01:04:34;;;;;;;81.70;50.80;;;;;;;7.11;92.31;98137.66;226760;1272;22531;-76
2024/03/02 01:09:36;;;;;;;83.50;52.80;;;;;;;7.06;91.91;98135.25;226636;1272;22546;-77
2024/03/02 01:14:37;;;;;;;86.40;52.80;;;;;;;6.96;91.55;98130.75;226786;1262;22614;-76
2024/03/02 01:19:41;;;;;;;84.60;50.80;;;;;;;6.87;91.65;98129.92;226693;1272;22537;-78
2024/03/02 01:24:43;;;;;;;84.60;51.40;;;;;;;6.79;91.71;98124.16;226922;1273;22548;-78
2024/03/02 01:29:46;;;;;;;83.70;53.20;;;;;;;6.71;91.89;98121.10;226644;1272;22565;-79
2024/03/02 01:34:48;;;;;;;85.70;52.10;;;;;;;6.66;91.71;98111.59;226656;1273;22544;-78
2024/03/02 01:39:50;;;;;;;80.90;48.80;;;;;;;6.61;92.05;98108.29;226797;1262;24229;-78
2024/03/02 01:44:52;;;;;;;81.00;49.30;;;;;;;6.59;92.32;98102.59;226713;1272;22534;-78
2024/03/02 01:49:54;;;;;;;86.70;50.60;;;;;;;6.56;92.22;98105.40;226656;1271;22574;-78
2024/03/02 01:54:56;;;;;;;83.00;50.70;;;;;;;6.49;91.96;98105.71;226723;1273;24287;-78
2024/03/02 01:59:58;;;;;;;78.30;50.50;;;;;;;6.43;92.31;98104.02;226646;1268;22526;-78
2024/03/02 02:05:00;;;;;;;77.80;49.40;;;;;;;6.40;92.47;98104.21;226861;1272;22551;-78
2024/03/02 02:10:02;;;;;;;75.60;45.70;;;;;;;6.35;92.27;98100.38;226805;1271;22858;-78
2024/03/02 02:15:30;;;;;;;73.40;47.40;;;;;;;6.31;92.33;98105.55;226766;1274;22538;-77
2024/03/02 02:20:33;;;;;;;70.40;45.40;;;;;;;6.28;92.55;98097.70;226632;1271;22538;-78
2024/03/02 02:25:35;;;;;;;71.50;46.30;;;;;;;6.27;92.21;98100.98;226740;1272;22554;-78
2024/03/02 02:30:37;;;;;;;68.30;41.90;;;;;;;6.29;92.46;98100.52;226569;1258;22529;-78
2024/03/02 02:35:39;;;;;;;68.00;42.10;;;;;;;6.28;92.33;98100.65;226729;1274;22545;-78
2024/03/02 02:40:41;;;;;;;69.90;43.80;;;;;;;6.29;92.43;98098.90;226647;1263;24291;-78
2024/03/02 02:45:43;;;;;;;71.20;43.90;;;;;;;6.31;92.46;98095.25;226784;1272;22544;-78
2024/03/02 02:50:45;;;;;;;59.00;40.00;;;;;;;6.32;92.56;98096.03;226651;1273;22535;-79
2024/03/02 02:55:47;;;;;;;60.60;40.40;;;;;;;6.36;92.49;98095.51;226821;1270;22542;-78
2024/03/02 03:00:49;;;;;;;60.20;40.20;;;;;;;6.40;92.32;98086.73;226855;1271;22532;-78
2024/03/02 03:05:51;;;;;;;60.50;39.20;;;;;;;6.39;92.15;98089.76;226855;1271;22538;-77
2024/03/02 03:10:53;;;;;;;59.60;41.70;;;;;;;6.39;91.80;98089.23;226627;1273;22627;-77
2024/03/02 03:15:55;;;;;;;61.30;39.90;;;;;;;6.41;92.40;98089.52;226713;1274;22533;-77
2024/03/02 03:20:57;;;;;;;63.30;41.60;;;;;;;6.40;91.94;98090.86;226657;1273;22531;-78
2024/03/02 03:26:00;;;;;;;61.20;37.90;;;;;;;6.37;91.63;98098.98;226652;1272;25453;-77
2024/03/02 03:31:03;;;;;;;58.90;38.90;;;;;;;6.29;91.83;98093.36;226696;1273;22652;-77
2024/03/02 03:36:05;;;;;;;58.70;39.40;;;;;;;6.23;91.66;98095.45;226682;1274;22811;-77
2024/03/02 03:41:07;;;;;;;57.80;39.80;;;;;;;6.20;91.72;98101.62;226638;1273;22633;-76
2024/03/02 03:46:10;;;;;;;58.00;39.10;;;;;;;6.18;91.48;98101.17;226650;1273;22542;-77
2024/03/02 03:51:12;;;;;;;59.80;41.00;;;;;;;6.15;91.71;98099.06;226731;1272;22555;-77
2024/03/02 03:56:14;;;;;;;59.20;40.10;;;;;;;6.14;91.71;98098.52;226772;1272;25910;-77
2024/03/02 04:01:16;;;;;;;61.20;40.60;;;;;;;6.13;91.76;98098.95;226724;1273;22680;-77
2024/03/02 04:06:18;;;;;;;62.70;39.90;;;;;;;6.11;91.85;98098.63;226729;1273;24294;-77
2024/03/02 04:11:20;;;;;;;63.40;41.00;;;;;;;6.10;92.08;98098.53;226825;1271;22530;-78
2024/03/02 04:16:22;;;;;;;58.80;39.40;;;;;;;6.11;91.87;98101.21;226854;1273;22539;-78
2024/03/02 04:21:24;;;;;;;56.80;39.40;;;;;;;6.13;91.56;98096.28;226802;1253;22564;-78
2024/03/02 04:26:26;;;;;;;57.70;39.50;;;;;;;6.13;91.90;98098.70;226774;1273;24311;-78
2024/03/02 04:31:28;;;;;;;55.10;38.70;;;;;;;6.16;91.69;98095.90;226673;1273;22526;-77
2024/03/02 04:36:31;;;;;;;58.10;37.70;;;;;;;6.20;92.37;98096.70;226751;1260;23696;-78
2024/03/02 04:41:33;;;;;;;52.90;37.70;;;;;;;6.23;91.84;98098.48;226691;1273;22551;-77
2024/03/02 04:46:35;;;;;;;58.70;39.20;;;;;;;6.24;91.80;98096.94;226660;1271;23296;-78
2024/03/02 04:51:37;;;;;;;60.00;40.60;;;;;;;6.24;91.80;98107.23;226763;1269;22549;-77
2024/03/02 04:56:49;;;;;;;58.80;39.60;;;;;;;6.24;92.10;98103.89;226776;1273;22599;-77
2024/03/02 05:01:52;;;;;;;53.50;34.50;;;;;;;6.26;91.80;98104.43;226736;1254;23024;-78
2024/03/02 05:06:56;;;;;;;50.30;34.90;;;;;;;6.28;91.99;98106.02;226663;1273;22517;-78
2024/03/02 05:17:19;;;;;;;55.40;36.60;;;;;;;6.30;91.92;98118.93;226686;1272;22551;-77
2024/03/02 05:22:20;;;;;;;53.00;35.90;;;;;;;6.34;91.80;98115.17;226763;1251;22555;-77
2024/03/02 05:27:22;;;;;;;51.50;35.50;;;;;;;6.40;91.59;98114.25;226816;1273;23006;-77
2024/03/02 05:32:25;;;;;;;56.60;36.60;;;;;;;6.45;91.86;98119.02;226757;1270;22953;-78
2024/03/02 05:37:28;;;;;;;51.70;35.90;;;;;;;6.49;91.73;98126.55;226649;1273;24279;-77
2024/03/02 05:42:30;;;;;;;52.50;36.10;;;;;;;6.54;91.81;98131.54;226799;1271;22530;-78
2024/03/02 05:47:32;;;;;;;53.60;35.30;;;;;;;6.61;91.85;98131.98;226755;1267;22527;-77
2024/03/02 05:52:35;;;;;;;47.60;34.00;;;;;;;6.66;91.43;98135.00;226775;1270;22550;-77
2024/03/02 06:02:58;;;;;;;54.60;33.60;;;;;;;6.69;91.09;98144.96;226812;1271;24272;-77
2024/03/02 06:07:59;;;;;;;48.40;34.60;;;;;;;6.66;91.24;98151.27;226846;1273;22559;-77
2024/03/02 06:13:01;;;;;;;50.10;33.60;;;;;;;6.67;91.33;98153.88;226813;1270;22538;-77
2024/03/02 06:18:06;;;;;;;54.10;35.20;;;;;;;6.75;91.75;98154.02;226879;1264;22534;-77
2024/03/02 06:23:09;;;;;;;56.30;37.50;;;;;;;6.83;91.37;98157.25;226812;1272;24248;-77
2024/03/02 06:28:11;;;;;;;55.40;35.80;;;;;;;6.89;91.21;98155.45;226885;1272;22602;-77
2024/03/02 06:33:13;;;;;;;56.10;37.40;;;;;;;6.98;91.57;98164.15;226761;1253;22666;-77
2024/03/02 06:38:15;;;;;;;55.70;36.80;;;;;;;7.12;91.50;98161.52;226845;1257;24222;-77
2024/03/02 06:43:17;;;;;;;59.20;38.80;;;;;;;7.19;91.02;98167.52;226817;1263;22560;-78
2024/03/02 06:48:23;;;;;;;55.20;37.50;;;;;;;7.25;90.90;98164.81;226834;1267;22495;-78
2024/03/02 06:53:25;;;;;;;58.50;38.50;;;;;;;7.34;91.07;98174.42;226730;1273;22800;-78
2024/03/02 06:58:27;;;;;;;51.80;36.90;;;;;;;7.42;90.91;98182.70;226925;1272;22544;-78
2024/03/02 07:03:29;;;;;;;51.30;36.40;;;;;;;7.50;90.87;98185.02;226810;1270;22538;-78
2024/03/02 07:08:31;;;;;;;55.10;37.20;;;;;;;7.58;90.85;98185.92;226809;1267;22526;-77
2024/03/02 07:13:34;;;;;;;53.40;37.10;;;;;;;7.68;90.71;98193.66;226812;1273;22575;-77
2024/03/02 07:18:45;;;;;;;54.70;36.20;;;;;;;7.77;90.47;98183.80;226883;1273;22639;-77
2024/03/02 07:23:47;;;;;;;50.50;35.70;;;;;;;7.88;90.60;98191.95;226938;1270;22530;-77
2024/03/02 07:28:49;;;;;;;52.60;35.40;;;;;;;8.02;90.86;98189.02;226949;1272;22553;-77
2024/03/02 07:33:51;;;;;;;53.30;35.90;;;;;;;8.18;90.71;98189.19;226802;1270;22540;-77
2024/03/02 07:38:54;;;;;;;51.70;37.10;;;;;;;8.39;90.87;98185.73;226837;1254;22531;-76
2024/03/02 07:43:56;;;;;;;48.40;36.40;;;;;;;8.59;90.63;98186.89;226785;1272;22524;-77
2024/03/02 07:48:58;;;;;;;54.50;38.20;;;;;;;8.78;90.20;98183.16;226686;1273;25183;-80
2024/03/02 07:54:00;;;;;;;55.60;37.80;;;;;;;9.00;90.43;98189.42;226757;1266;22538;-78
2024/03/02 07:59:03;;;;;;;53.10;38.70;;;;;;;9.24;90.30;98192.39;226764;1261;24927;-78
2024/03/02 08:04:06;;;;;;;48.60;36.10;;;;;;;9.48;90.26;98200.19;226631;1265;24274;-78
2024/03/02 08:09:11;;;;;;;52.00;37.40;;;;;;;9.65;89.42;98196.13;226601;1254;22584;-83
2024/03/02 08:14:14;;;;;;;50.30;36.80;;;;;;;9.79;89.31;98198.38;226736;1266;22616;-82
2024/03/02 08:19:16;;;;;;;47.60;36.20;;;;;;;9.89;88.81;98203.86;226881;1265;22537;-81
2024/03/02 08:24:18;;;;;;;55.50;39.60;;;;;;;9.95;88.09;98199.35;227090;1261;22553;-87
2024/03/02 08:29:21;;;;;;;58.80;41.10;;;;;;;9.95;87.78;98204.19;226956;1266;26009;-84
2024/03/02 08:34:26;;;;;;;54.90;37.90;;;;;;;10.03;87.73;98208.29;226814;1267;22539;-84
2024/03/02 08:39:28;;;;;;;52.60;37.60;;;;;;;10.05;87.31;98211.39;226912;1250;22626;-83
2024/03/02 08:44:30;;;;;;;55.40;38.40;;;;;;;10.14;87.72;98207.14;226994;1269;22541;-85
2024/03/02 08:49:34;;;;;;;50.00;37.40;;;;;;;10.29;87.67;98200.66;226792;1250;22566;-82
2024/03/02 08:54:36;;;;;;;51.30;37.00;;;;;;;10.40;87.28;98202.74;226788;1270;22569;-81
2024/03/02 08:59:39;;;;;;;53.50;38.80;;;;;;;10.52;87.07;98199.27;226802;1258;22536;-82
2024/03/02 09:04:41;;;;;;;53.00;37.30;;;;;;;10.62;86.78;98202.21;226948;1269;22535;-82
2024/03/02 09:09:43;;;;;;;55.10;37.30;;;;;;;10.67;86.68;98206.77;226869;1272;22672;-79
2024/03/02 09:14:46;;;;;;;52.40;38.80;;;;;;;10.80;86.73;98212.33;226703;1258;22548;-82
2024/03/02 09:19:52;;;;;;;50.10;37.20;;;;;;;10.99;86.93;98209.05;226737;1265;22549;-88
2024/03/02 09:24:54;;;;;;;48.80;36.70;;;;;;;11.17;86.68;98215.40;226628;1253;22581;-77
2024/03/02 09:29:56;;;;;;;49.70;39.00;;;;;;;11.30;86.40;98215.55;226660;1263;25304;-79
2024/03/02 09:34:58;;;;;;;53.80;39.50;;;;;;;11.37;85.78;98222.54;226653;1256;22553;-79
2024/03/02 09:40:00;;;;;;;49.50;38.00;;;;;;;11.44;85.81;98221.27;226609;1250;22537;-78
2024/03/02 09:45:03;;;;;;;53.40;39.60;;;;;;;11.52;85.73;98222.38;226626;1259;22545;-78
2024/03/02 09:50:07;;;;;;;51.40;37.60;;;;;;;11.63;85.49;98221.12;226632;1259;22545;-77
2024/03/02 09:55:09;;;;;;;57.90;40.60;;;;;;;11.71;85.12;98222.13;226703;1253;22530;-79
2024/03/02 10:00:14;;;;;;;53.60;40.10;;;;;;;11.78;84.77;98224.85;226664;1254;22556;-76
2024/03/02 10:05:25;;;;;;;51.80;38.30;;;;;;;11.91;85.00;98223.34;226538;1250;22574;-77
2024/03/02 10:10:39;;;;;;;49.00;37.50;;;;;;;12.11;85.07;98225.97;226578;1259;23477;-77
2024/03/02 10:15:42;;;;;;;51.70;38.10;;;;;;;12.29;84.56;98226.94;226498;1262;22563;-76
2024/03/02 10:20:44;;;;;;;52.40;38.10;;;;;;;12.50;84.63;98221.80;226360;1250;22534;-76
2024/03/02 10:25:46;;;;;;;46.50;36.80;;;;;;;12.69;84.40;98219.52;226579;1252;22536;-76
2024/03/02 10:30:59;;;;;;;45.50;35.50;;;;;;;12.90;84.22;98218.77;226586;1270;22541;-77
2024/03/02 10:36:02;;;;;;;46.00;36.20;;;;;;;13.04;83.69;98219.35;226521;1254;22552;-76
2024/03/02 10:41:04;;;;;;;47.60;36.80;;;;;;;13.10;83.02;98221.79;226595;1268;24206;-77
2024/03/02 10:46:06;;;;;;;42.70;33.20;;;;;;;13.16;82.81;98220.38;226623;1265;22666;-76
2024/03/02 10:51:08;;;;;;;43.10;32.50;;;;;;;13.30;82.83;98216.23;226590;1267;22541;-76
2024/03/02 10:56:16;;;;;;;42.40;31.30;;;;;;;13.43;82.47;98216.41;226580;1262;22565;-77
2024/03/02 11:01:19;;;;;;;42.10;34.00;;;;;;;13.47;81.77;98215.68;226618;1265;22611;-77
2024/03/02 11:06:23;;;;;;;41.80;33.20;;;;;;;13.43;81.57;98218.69;226624;1249;22591;-78
2024/03/02 11:11:34;;;;;;;45.30;34.70;;;;;;;13.39;81.57;98221.65;226597;1265;22544;-77
2024/03/02 11:16:39;;;;;;;49.60;34.90;;;;;;;13.41;81.57;98229.03;226518;1259;22560;-76
2024/03/02 11:21:43;;;;;;;45.90;35.60;;;;;;;13.45;81.76;98224.55;226634;1265;22536;-77
2024/03/02 11:26:45;;;;;;;44.80;34.80;;;;;;;13.50;81.63;98220.34;226612;1254;23649;-77
2024/03/02 11:32:18;;;;;;;44.10;34.40;;;;;;;13.49;81.38;98218.14;226673;1270;22766;-76
2024/03/02 11:37:20;;;;;;;36.20;26.00;;;;;;;13.44;81.30;98212.68;226530;1270;22548;-77
2024/03/02 11:42:22;;;;;;;35.00;23.60;;;;;;;13.55;80.90;98214.52;226595;1254;23894;-77
2024/03/02 11:47:31;;;;;;;35.40;25.20;;;;;;;13.67;80.40;98213.31;226716;1265;22525;-79
2024/03/02 11:52:36;;;;;;;32.40;24.50;;;;;;;13.84;80.46;98213.89;226647;1265;22531;-77
2024/03/02 11:57:38;;;;;;;33.70;24.50;;;;;;;14.06;80.30;98210.56;226626;1263;22536;-79
2024/03/02 12:02:44;;;;;;;31.30;23.50;;;;;;;14.27;79.98;98206.94;226461;1271;22576;-78
2024/03/02 12:07:47;;;;;;;27.10;22.20;;;;;;;14.44;79.53;98203.69;226364;1270;25038;-79
2024/03/02 12:12:58;;;;;;;31.30;23.00;;;;;;;14.60;79.06;98200.96;226602;1269;22648;-78
2024/03/02 12:18:02;;;;;;;30.40;21.80;;;;;;;14.77;78.81;98201.02;226887;1270;22578;-79
2024/03/02 12:23:05;;;;;;;17.80;12.80;;;;;;;14.92;78.70;98203.13;226702;1265;23289;-78
2024/03/02 12:28:08;;;;;;;8.40;6.40;;;;;;;15.04;77.85;98199.69;226923;1270;22583;-79
2024/03/02 12:33:11;;;;;;;9.40;7.30;;;;;;;15.10;77.54;98195.81;226876;1270;22698;-79
2024/03/02 12:38:14;;;;;;;8.80;7.20;;;;;;;15.17;77.26;98197.44;226873;1266;22584;-79
2024/03/02 12:43:16;;;;;;;10.40;8.70;;;;;;;15.18;76.62;98200.49;226782;1273;22542;-79
2024/03/02 12:48:18;;;;;;;10.90;9.40;;;;;;;15.08;76.34;98204.27;226851;1262;22538;-79
2024/03/02 12:53:21;;;;;;;11.10;9.20;;;;;;;15.12;76.41;98200.95;226714;1269;152119;-79
2024/03/02 12:58:23;;;;;;;12.60;9.20;;;;;;;15.18;76.39;98198.41;226899;1270;24979;-80
2024/03/02 13:03:25;;;;;;;13.40;9.20;;;;;;;15.23;76.45;98197.52;226846;1257;22551;-79
2024/03/02 13:08:28;;;;;;;10.60;9.10;;;;;;;15.26;76.39;98193.33;226823;1269;22899;-80
2024/03/02 13:13:34;;;;;;;9.70;8.70;;;;;;;15.22;76.36;98196.55;226842;1269;22545;-79
2024/03/02 13:18:38;;;;;;;13.00;10.10;;;;;;;15.04;75.85;98197.15;226857;1271;22551;-79
2024/03/02 13:23:40;;;;;;;13.30;10.50;;;;;;;14.80;76.16;98199.17;226846;1271;22553;-79
2024/03/02 13:28:42;;;;;;;16.20;12.30;;;;;;;14.57;76.67;98199.41;226837;1273;22558;-79
2024/03/02 13:33:44;;;;;;;17.30;13.20;;;;;;;14.35;76.84;98202.90;226880;1268;22525;-80
2024/03/02 13:38:46;;;;;;;19.40;14.80;;;;;;;14.19;77.21;98203.23;226828;1273;22541;-79
2024/03/02 13:43:48;;;;;;;20.20;15.50;;;;;;;14.04;77.59;98206.29;226806;1273;22552;-80
2024/03/02 13:48:54;;;;;;;20.50;16.10;;;;;;;13.87;77.76;98205.36;226795;1269;22540;-79
2024/03/02 13:53:59;;;;;;;21.10;16.60;;;;;;;13.70;77.93;98207.65;226808;1272;22560;-79
2024/03/02 13:59:01;;;;;;;24.60;17.20;;;;;;;13.51;78.46;98213.26;226900;1272;22565;-80
2024/03/02 14:04:03;;;;;;;23.70;18.40;;;;;;;13.31;78.50;98208.16;226794;1272;22548;-80
2024/03/02 14:09:05;;;;;;;21.20;17.60;;;;;;;13.14;79.00;98211.73;226782;1271;22553;-80
2024/03/02 14:14:07;;;;;;;23.50;18.20;;;;;;;12.88;78.90;98209.86;226809;1268;22535;-80
2024/03/02 14:19:09;;;;;;;23.40;19.30;;;;;;;12.65;79.40;98206.78;226705;1273;22518;-80
2024/03/02 14:24:11;;;;;;;26.40;19.40;;;;;;;12.41;79.95;98206.98;226645;1273;22529;-79
2024/03/02 14:29:14;;;;;;;28.00;20.60;;;;;;;12.10;80.26;98214.45;226812;1272;22550;-80
2024/03/02 14:34:16;;;;;;;28.60;22.50;;;;;;;11.85;80.52;98206.30;226798;1273;22543;-80
2024/03/02 14:39:19;;;;;;;31.10;25.10;;;;;;;11.64;81.21;98195.44;226736;1271;23193;-80
2024/03/02 14:44:22;;;;;;;32.30;26.00;;;;;;;11.53;81.73;98189.45;226639;1265;25413;-80
2024/03/02 14:49:24;;;;;;;31.50;25.10;;;;;;;11.41;82.04;98192.58;226775;1270;22601;-80
2024/03/02 14:54:27;;;;;;;32.40;26.60;;;;;;;11.35;82.50;98193.45;226787;1271;22561;-80
2024/03/02 14:59:29;;;;;;;33.40;26.00;;;;;;;11.34;82.93;98187.50;226741;1270;22547;-79
2024/03/02 15:04:31;;;;;;;29.00;24.90;;;;;;;11.37;83.26;98181.32;226774;1271;22547;-79
2024/03/02 15:09:35;;;;;;;31.40;24.90;;;;;;;11.44;83.58;98174.45;226765;1267;24232;-80
2024/03/02 15:14:38;;;;;;;31.00;23.70;;;;;;;11.56;83.89;98174.21;226772;1270;25038;-79
2024/03/02 15:19:41;;;;;;;28.90;22.20;;;;;;;11.62;83.83;98174.64;226726;1273;24235;-79
2024/03/02 15:24:43;;;;;;;26.70;19.70;;;;;;;11.61;83.84;98163.89;226672;1270;22538;-80
2024/03/02 15:29:48;;;;;;;23.90;17.90;;;;;;;11.58;83.80;98157.06;226716;1268;22541;-80
2024/03/02 15:34:50;;;;;;;23.70;18.60;;;;;;;11.57;83.99;98157.20;226728;1271;22533;-80
2024/03/02 15:39:52;;;;;;;21.50;16.70;;;;;;;11.51;83.90;98164.71;226683;1271;24221;-80
2024/03/02 15:44:54;;;;;;;23.20;18.30;;;;;;;11.35;84.00;98168.26;226694;1271;25692;-79
2024/03/02 15:49:56;;;;;;;22.60;18.40;;;;;;;11.28;84.51;98169.20;226739;1272;22621;-79
2024/03/02 15:54:58;;;;;;;22.40;17.30;;;;;;;11.32;85.04;98171.92;226653;1270;24913;-80
2024/03/02 16:00:00;;;;;;;21.60;17.50;;;;;;;11.35;85.08;98182.09;226772;1272;22534;-79
2024/03/02 16:05:13;;;;;;;28.50;21.60;;;;;;;11.32;85.19;98185.06;226678;1271;22691;-79
2024/03/02 16:10:16;;;;;;;36.80;28.80;;;;;;;11.28;85.17;98185.98;226678;1273;22950;-79
2024/03/02 16:15:18;;;;;;;43.50;33.00;;;;;;;11.23;85.33;98186.12;226770;1270;25516;-79
2024/03/02 16:20:20;;;;;;;48.60;38.00;;;;;;;11.17;85.49;98188.14;226689;1269;22534;-80
2024/03/02 16:25:24;;;;;;;48.90;34.90;;;;;;;11.11;85.53;98186.91;226688;1273;22537;-80
2024/03/02 16:30:27;;;;;;;46.40;33.80;;;;;;;11.03;85.58;98184.10;226672;1270;22580;-80
2024/03/02 16:35:29;;;;;;;46.40;34.70;;;;;;;10.92;85.86;98184.00;226620;1269;22999;-80
2024/03/02 16:40:31;;;;;;;48.50;37.00;;;;;;;10.78;85.85;98182.66;226679;1271;22522;-79
2024/03/02 16:45:34;;;;;;;48.80;36.20;;;;;;;10.70;86.35;98193.52;226651;1271;22526;-79
2024/03/02 16:50:36;;;;;;;50.50;36.40;;;;;;;10.64;86.47;98195.35;226598;1273;23920;-79
2024/03/02 16:55:38;;;;;;;43.20;31.90;;;;;;;10.57;86.55;98198.83;226713;1273;22535;-79
2024/03/02 17:00:40;;;;;;;44.50;32.10;;;;;;;10.51;86.72;98199.52;226813;1273;22588;-80
2024/03/02 17:05:43;;;;;;;42.70;31.40;;;;;;;10.45;86.93;98199.55;226761;1273;22534;-79
2024/03/02 17:10:46;;;;;;;46.10;32.70;;;;;;;10.39;87.02;98199.86;226858;1270;22529;-80
2024/03/02 17:15:48;;;;;;;47.70;34.80;;;;;;;10.33;87.20;98196.45;226860;1273;22642;-80
2024/03/02 17:20:50;;;;;;;53.90;39.40;;;;;;;10.29;87.38;98189.44;226738;1272;22530;-80
2024/03/02 17:25:52;;;;;;;54.60;39.70;;;;;;;10.26;87.57;98188.23;226698;1270;22535;-79
2024/03/02 17:30:55;;;;;;;50.20;39.20;;;;;;;10.23;87.80;98182.62;226616;1272;22548;-79
2024/03/02 17:35:57;;;;;;;52.10;40.00;;;;;;;10.21;87.84;98182.91;226631;1270;24276;-79
2024/03/02 17:41:00;;;;;;;49.80;37.40;;;;;;;10.18;87.82;98180.45;226672;1271;22530;-79
2024/03/02 17:46:03;;;;;;;49.80;37.90;;;;;;;10.14;88.01;98181.51;226697;1272;22548;-78
2024/03/02 17:51:08;;;;;;;43.90;35.30;;;;;;;10.10;88.09;98183.89;226695;1273;25258;-79
2024/03/02 17:56:11;;;;;;;49.10;36.30;;;;;;;10.06;88.20;98182.84;226746;1271;22530;-80
2024/03/02 18:01:15;;;;;;;49.30;37.00;;;;;;;10.00;88.17;98184.92;226703;1273;22518;-80
2024/03/02 18:06:17;;;;;;;52.20;39.10;;;;;;;9.97;88.28;98187.27;226564;1271;22551;-79
2024/03/02 18:11:23;;;;;;;55.50;40.10;;;;;;;9.95;88.67;98184.61;226653;1273;22634;-79
2024/03/02 18:16:26;;;;;;;53.80;38.30;;;;;;;9.95;88.67;98187.55;226636;1273;22602;-79
2024/03/02 18:21:28;;;;;;;57.70;43.40;;;;;;;9.92;88.59;98183.70;226676;1271;22548;-79
2024/03/02 18:26:32;;;;;;;57.60;42.00;;;;;;;9.91;88.89;98180.29;226784;1272;22626;-79
2024/03/02 18:31:35;;;;;;;69.00;49.70;;;;;;;9.89;88.88;98181.24;226772;1272;22534;-79
2024/03/02 18:36:37;;;;;;;71.60;50.20;;;;;;;9.87;89.07;98182.04;226702;1273;22536;-79
2024/03/02 18:41:39;;;;;;;79.30;54.90;;;;;;;9.83;88.86;98182.02;226670;1272;22537;-79
2024/03/02 18:46:41;;;;;;;80.60;57.80;;;;;;;9.78;89.12;98181.98;226769;1273;22533;-80
2024/03/02 18:51:43;;;;;;;82.30;54.60;;;;;;;9.72;89.35;98181.50;226629;1273;24190;-79
2024/03/02 18:56:45;;;;;;;81.20;60.20;;;;;;;9.67;89.37;98178.84;226637;1273;22534;-79
2024/03/02 19:01:48;;;;;;;77.60;58.00;;;;;;;9.60;89.27;98177.11;226666;1270;22556;-79
2024/03/02 19:06:51;;;;;;;78.30;56.30;;;;;;;9.51;89.47;98173.63;226594;1272;22542;-78
2024/03/02 19:11:55;;;;;;;74.30;55.40;;;;;;;9.40;89.25;98172.84;226727;1271;22540;-79
2024/03/02 19:16:57;;;;;;;80.00;58.80;;;;;;;9.30;89.45;98172.02;226730;1273;22537;-80
2024/03/02 19:21:59;;;;;;;79.10;56.10;;;;;;;9.22;89.64;98176.31;226707;1273;22546;-79
2024/03/02 19:27:11;;;;;;;74.10;55.10;;;;;;;9.14;89.40;98173.23;226791;1273;22539;-79
2024/03/02 19:32:13;;;;;;;84.40;60.00;;;;;;;9.06;89.58;98169.80;226716;1273;22538;-79
2024/03/02 19:37:21;;;;;;;78.10;56.60;;;;;;;8.95;89.48;98166.58;226677;1273;22544;-80
2024/03/02 19:42:23;;;;;;;80.60;56.20;;;;;;;8.85;89.57;98162.79;226652;1273;22542;-79
2024/03/02 19:47:26;;;;;;;80.10;58.30;;;;;;;8.74;89.47;98163.23;226726;1271;24282;-79
2024/03/02 19:52:28;;;;;;;79.50;59.50;;;;;;;8.66;89.88;98163.58;226851;1272;22490;-80
2024/03/02 19:57:30;;;;;;;73.80;54.10;;;;;;;8.58;89.92;98162.34;226810;1272;22932;-79
2024/03/02 20:02:32;;;;;;;85.50;57.50;;;;;;;8.49;90.14;98163.67;226690;1272;22551;-79
2024/03/02 20:07:35;;;;;;;79.10;57.20;;;;;;;8.44;90.31;98162.75;226660;1272;24193;-80
2024/03/02 20:12:38;;;;;;;78.90;56.10;;;;;;;8.41;90.55;98163.65;226724;1273;22529;-79
2024/03/02 20:17:40;;;;;;;82.30;59.80;;;;;;;8.41;90.49;98164.27;226688;1273;22556;-79
2024/03/02 20:22:43;;;;;;;85.30;60.70;;;;;;;8.40;90.80;98161.41;226750;1272;22523;-79
2024/03/02 20:27:45;;;;;;;84.40;59.50;;;;;;;8.40;90.35;98160.36;226752;1271;22554;-80
2024/03/02 20:32:47;;;;;;;81.00;58.20;;;;;;;8.38;90.72;98164.03;226675;1266;22539;-79
2024/03/02 20:37:50;;;;;;;91.40;61.40;;;;;;;8.37;90.78;98166.05;226679;1273;22653;-78
2024/03/02 20:42:51;;;;;;;84.60;58.30;;;;;;;8.36;90.81;98164.25;226605;1270;22538;-79
2024/03/02 20:47:53;;;;;;;85.80;58.90;;;;;;;8.35;90.44;98170.20;226622;1272;22540;-80
2024/03/02 20:53:00;;;;;;;83.20;58.00;;;;;;;8.33;90.50;98169.30;226640;1271;22542;-79
2024/03/02 20:58:02;;;;;;;83.40;58.30;;;;;;;8.29;90.88;98167.61;226589;1271;22546;-79
2024/03/02 21:03:04;;;;;;;84.70;58.20;;;;;;;8.27;90.55;98165.77;226683;1272;22534;-80
2024/03/02 21:08:08;;;;;;;78.40;53.80;;;;;;;8.26;90.70;98165.55;226621;1273;22530;-79
2024/03/02 21:13:10;;;;;;;75.00;53.20;;;;;;;8.25;90.82;98164.85;226644;1271;22565;-79
2024/03/02 21:18:12;;;;;;;70.50;50.90;;;;;;;8.23;90.68;98169.20;226638;1271;25350;-78
2024/03/02 21:23:16;;;;;;;72.60;52.40;;;;;;;8.22;90.69;98170.56;226645;1270;22531;-78
2024/03/02 21:28:18;;;;;;;72.20;50.60;;;;;;;8.22;90.60;98170.56;226665;1273;22534;-79
2024/03/02 21:33:20;;;;;;;74.00;53.20;;;;;;;8.22;90.50;98166.96;226686;1273;22554;-78
2024/03/02 21:38:23;;;;;;;68.70;47.90;;;;;;;8.21;90.78;98165.94;226735;1272;22532;-79
2024/03/02 21:43:31;;;;;;;68.00;50.30;;;;;;;8.22;90.87;98165.90;226663;1271;22540;-79
2024/03/02 21:48:34;;;;;;;69.70;50.20;;;;;;;8.22;90.58;98170.08;226665;1273;22580;-80
2024/03/02 21:53:36;;;;;;;69.40;50.00;;;;;;;8.21;90.69;98172.52;226725;1272;22533;-78
2024/03/02 21:58:39;;;;;;;76.20;52.70;;;;;;;8.20;90.37;98176.85;226721;1273;22558;-78
2024/03/02 22:03:45;;;;;;;74.40;53.30;;;;;;;8.19;90.51;98175.83;226642;1272;22526;-79
2024/03/02 22:08:51;;;;;;;73.00;53.10;;;;;;;8.18;90.51;98171.61;226642;1273;22538;-79
2024/03/02 22:13:53;;;;;;;83.40;55.50;;;;;;;8.16;90.28;98169.75;226642;1273;22554;-79
2024/03/02 22:18:55;;;;;;;80.10;55.90;;;;;;;8.16;90.66;98168.77;226753;1271;22520;-79
2024/03/02 22:23:57;;;;;;;77.20;53.10;;;;;;;8.16;90.60;98166.79;226735;1272;22533;-79
2024/03/02 22:28:59;;;;;;;78.70;55.90;;;;;;;8.15;90.64;98169.54;226650;1273;22529;-80
2024/03/02 22:34:01;;;;;;;85.90;58.90;;;;;;;8.13;90.42;98162.56;226620;1272;23335;-79
2024/03/02 22:39:03;;;;;;;85.00;57.90;;;;;;;8.13;90.69;98160.73;226763;1272;22543;-79
2024/03/02 22:44:05;;;;;;;85.30;57.00;;;;;;;8.16;90.85;98166.10;226725;1273;22575;-79
2024/03/02 22:49:07;;;;;;;76.80;54.90;;;;;;;8.20;90.87;98163.83;226726;1273;22531;-79
2024/03/02 22:54:10;;;;;;;75.20;53.80;;;;;;;8.26;90.99;98157.50;226778;1273;22524;-79
2024/03/02 22:59:14;;;;;;;83.60;55.50;;;;;;;8.31;91.03;98157.84;226622;1273;22530;-79
2024/03/02 23:04:16;;;;;;;77.60;55.00;;;;;;;8.36;90.92;98157.48;226732;1273;22549;-79
2024/03/02 23:09:18;;;;;;;82.20;56.50;;;;;;;8.39;90.89;98159.87;226654;1270;22539;-81
2024/03/02 23:14:20;;;;;;;79.60;52.90;;;;;;;8.43;90.61;98157.68;226619;1272;22541;-79
2024/03/02 23:19:22;;;;;;;77.20;53.70;;;;;;;8.45;90.78;98160.61;226670;1273;22552;-78